Pavlodar Airport
UASP : now visible

Airfield :











YOU CAN JOIN US ON...

 
LOGIN :

Register | Disclaimer

   EN    FR    IT 

 









Legend :    VFR   Marginal VFR   IFR   Intensive IFR   Very Intensive IFR
Visi :
Ceiling :
>= 8 km
>= 3000ft
5 to 8 km
1000 to 3000 ft
1500m to 5 km
500 to 1000 ft
800 to 1500m
200 to 500 ft
< 800m
< 200 ft
Symbols :   Thunderstorms  Fog  Heavy snow  Heavy precipitations  Wind > 20 kt






- Airport Elevation : 410 ft
- IATA code : PWQ


UASP - Pavlodar

CURRENT METAR :
  • 262300Z 35002MPS CAVOK 05/03 Q1029 R03/0///70 NOSIG RMK QFE761/1015

EXPIRED METARs :
  • 262230Z 35003MPS CAVOK 05/03 Q1029 R03/0///70 NOSIG RMK QFE761/1015
  • 262200Z 35003MPS 6000 NSC 05/03 Q1029 R03/0///70 NOSIG RMK QFE761/1015
  • 262130Z 35003MPS 6000 NSC 04/03 Q1029 R03/0///70 NOSIG RMK QFE761/1015
  • 262100Z 32002MPS 6000 NSC 05/03 Q1029 R03/0///70 NOSIG RMK QFE761/1015
  • 262030Z 31002MPS 6000 NSC 05/03 Q1029 R03/0///70 NOSIG RMK QFE761/1015

TAF TAF UASP
Valid from the 26 at 21:00 until the 27 at 06:00 UTC


262000Z 2621/2706 33005MPS 2000 BR FU BKN007
TEMPO 2621/2703 0200 FG VV001
UACC FIR / Asia



MET'MAP, your aeronautical weather chart ! - Copyright ORBIFLY December 2007 - Disclaimer

ORBIFLY MET'MAP TEAM :

Programming & Development : Alexandra Zaïnal
Concept & original design : Baudouin d'Aumeries
Assistance for programming : Marc-Olivier Méhu
Technical & hardware support : Manuel Goepfert

Contact : metmap@orbifly.com




SOURCES & CREDITS :

   NOAA       Earth
Advisory